createdAt,value
2017-11-19T00:01:33.216Z,68.41
2017-11-19T00:04:00.945Z,68.72
2017-11-19T00:06:28.692Z,68.85
2017-11-19T00:08:56.511Z,68.76
2017-11-19T00:11:24.303Z,68.49
2017-11-19T00:13:52.065Z,69.25
2017-11-19T00:16:19.886Z,69.31
2017-11-19T00:18:47.709Z,70.10
2017-11-19T00:21:15.473Z,69.84
2017-11-19T00:23:43.756Z,72.72
2017-11-19T00:26:11.485Z,75.28
2017-11-19T00:28:39.222Z,76.25
2017-11-19T00:31:06.926Z,76.44
2017-11-19T00:33:34.690Z,77.08
2017-11-19T00:36:02.804Z,77.71
2017-11-19T00:38:30.553Z,78.79
2017-11-19T00:40:58.266Z,79.45
2017-11-19T00:43:28.789Z,79.62
2017-11-19T00:45:56.773Z,80.40
2017-11-19T00:48:24.459Z,80.25
2017-11-19T00:50:52.134Z,79.81
2017-11-19T00:53:19.854Z,79.28
2017-11-19T00:55:47.525Z,80.06
2017-11-19T00:58:15.277Z,80.18
2017-11-19T01:00:43.007Z,79.05
2017-11-19T01:03:10.759Z,79.27
2017-11-19T01:05:38.477Z,78.44
2017-11-19T01:08:06.176Z,72.81
2017-11-19T01:10:33.841Z,71.57
2017-11-19T01:13:01.623Z,73.49
2017-11-19T01:15:29.393Z,74.19
2017-11-19T01:17:57.923Z,75.42
2017-11-19T01:20:25.597Z,76.69
2017-11-19T01:22:53.335Z,77.39
2017-11-19T01:25:21.021Z,78.40
2017-11-19T01:27:48.774Z,79.54
2017-11-19T01:30:16.510Z,79.56
2017-11-19T01:32:44.223Z,80.25
2017-11-19T01:35:11.995Z,79.43
2017-11-19T01:37:39.950Z,78.91
2017-11-19T01:40:07.709Z,79.63
2017-11-19T01:42:35.474Z,79.99
2017-11-19T01:45:03.522Z,80.27
2017-11-19T01:47:31.315Z,80.48
2017-11-19T01:49:59.049Z,80.19
2017-11-19T01:52:26.862Z,76.65
2017-11-19T01:54:54.536Z,76.67
2017-11-19T01:57:22.230Z,76.54
2017-11-19T01:59:50.017Z,76.63
2017-11-19T02:02:29.429Z,73.47
2017-11-19T02:04:57.263Z,73.94
2017-11-19T02:07:25.044Z,75.39
2017-11-19T02:09:52.741Z,70.29
2017-11-19T02:12:20.435Z,73.85
2017-11-19T02:14:48.211Z,74.34
2017-11-19T02:17:16.015Z,75.64
2017-11-19T02:19:43.779Z,76.93
2017-11-19T02:22:11.514Z,75.25
2017-11-19T02:24:39.291Z,70.15
2017-11-19T02:27:06.997Z,72.17
2017-11-19T02:29:34.746Z,75.55
2017-11-19T02:32:02.447Z,77.41
2017-11-19T02:34:30.226Z,77.30
2017-11-19T02:36:57.961Z,76.81
2017-11-19T02:39:25.711Z,77.02
2017-11-19T02:41:53.429Z,76.50
2017-11-19T02:44:21.190Z,77.45
2017-11-19T02:46:48.882Z,74.02
2017-11-19T02:49:16.624Z,74.00
2017-11-19T02:51:44.391Z,74.80
2017-11-19T02:54:12.211Z,76.18
2017-11-19T02:56:40.023Z,77.26
2017-11-19T02:59:07.762Z,78.37
2017-11-19T03:01:35.498Z,74.05
2017-11-19T03:04:03.166Z,72.89
2017-11-19T03:06:30.914Z,75.61
2017-11-19T03:08:58.683Z,76.15
2017-11-19T03:11:26.391Z,75.77
2017-11-19T03:13:54.143Z,78.59
2017-11-19T03:16:21.842Z,78.89
2017-11-19T03:18:49.576Z,79.45
2017-11-19T03:21:17.326Z,80.34
2017-11-19T03:23:45.006Z,80.41
2017-11-19T03:26:12.823Z,82.27
2017-11-19T03:28:40.548Z,83.19
2017-11-19T03:31:08.312Z,84.90
2017-11-19T03:33:36.028Z,83.87
2017-11-19T03:36:03.717Z,83.37
2017-11-19T03:38:31.585Z,83.10
2017-11-19T03:40:59.307Z,83.81
2017-11-19T03:43:27.030Z,83.58
2017-11-19T03:45:54.726Z,82.45
2017-11-19T03:48:22.479Z,82.43
2017-11-19T03:50:50.186Z,82.24
2017-11-19T03:53:17.925Z,82.59
2017-11-19T03:55:45.602Z,82.95
2017-11-19T03:58:13.311Z,84.14
2017-11-19T04:00:41.044Z,82.85
2017-11-19T04:03:08.806Z,78.53
2017-11-19T04:05:36.593Z,78.12
2017-11-19T04:08:04.305Z,75.73
2017-11-19T04:10:32.011Z,75.55
2017-11-19T04:12:59.791Z,75.00
2017-11-19T04:15:27.495Z,74.79
2017-11-19T04:17:55.212Z,74.74
2017-11-19T04:20:22.920Z,74.22
2017-11-19T04:22:50.607Z,74.19
2017-11-19T04:25:18.355Z,73.55
2017-11-19T04:27:46.263Z,74.22
2017-11-19T04:30:14.027Z,73.41
2017-11-19T04:32:41.800Z,73.93
2017-11-19T04:35:09.517Z,73.13
2017-11-19T04:37:37.285Z,73.01
2017-11-19T04:40:04.979Z,72.81
2017-11-19T04:42:32.686Z,72.97
2017-11-19T04:45:00.411Z,73.03
2017-11-19T04:47:28.146Z,72.77
2017-11-19T04:49:55.891Z,72.03
2017-11-19T04:52:23.617Z,72.19
2017-11-19T04:54:51.370Z,72.55
2017-11-19T04:57:19.067Z,72.67
2017-11-19T04:59:46.800Z,73.47
2017-11-19T05:02:14.519Z,73.23
2017-11-19T05:04:42.191Z,74.70
2017-11-19T05:07:09.906Z,73.98
2017-11-19T05:09:37.686Z,74.33
2017-11-19T05:12:05.427Z,74.92
2017-11-19T05:14:33.249Z,76.21
2017-11-19T05:17:01.014Z,76.33
2017-11-19T05:19:28.759Z,78.11
2017-11-19T05:21:56.497Z,78.49
2017-11-19T05:24:24.279Z,79.73
2017-11-19T05:26:52.013Z,80.80
2017-11-19T05:29:19.793Z,81.02
2017-11-19T05:31:47.536Z,81.88
2017-11-19T05:34:15.251Z,82.49
2017-11-19T05:36:43.026Z,82.53
2017-11-19T05:39:10.747Z,82.56
2017-11-19T05:41:38.549Z,83.24
2017-11-19T05:44:06.324Z,83.48
2017-11-19T05:46:34.784Z,83.63
2017-11-19T05:49:02.551Z,84.29
2017-11-19T05:51:30.249Z,84.27
2017-11-19T05:53:58.074Z,84.63
2017-11-19T05:56:25.864Z,84.73
2017-11-19T05:58:53.624Z,85.38
2017-11-19T06:01:21.389Z,85.34
2017-11-19T06:03:49.120Z,85.39
2017-11-19T06:06:16.824Z,85.48
2017-11-19T06:08:44.617Z,85.56
2017-11-19T06:11:12.337Z,86.17
2017-11-19T06:13:40.032Z,86.05
2017-11-19T06:16:07.882Z,86.27
2017-11-19T06:18:35.594Z,86.07
2017-11-19T06:21:03.272Z,86.21
2017-11-19T06:23:31.016Z,86.05
2017-11-19T06:25:58.789Z,86.56
2017-11-19T06:28:26.523Z,87.12
2017-11-19T06:30:54.300Z,87.40
2017-11-19T06:33:22.078Z,88.01
2017-11-19T06:35:49.820Z,88.02
2017-11-19T06:38:17.552Z,88.13
2017-11-19T06:40:45.245Z,88.27
2017-11-19T06:43:13.055Z,88.48
2017-11-19T06:45:40.827Z,88.54
2017-11-19T06:48:08.715Z,89.05
2017-11-19T06:50:36.740Z,89.29
2017-11-19T06:53:04.483Z,89.93
2017-11-19T06:55:32.249Z,90.49
2017-11-19T06:57:59.978Z,90.72
2017-11-19T07:00:27.696Z,91.00
2017-11-19T07:02:55.480Z,91.28
2017-11-19T07:05:23.253Z,91.71
2017-11-19T07:07:51.092Z,91.15
2017-11-19T07:10:18.848Z,90.81
2017-11-19T07:12:46.677Z,91.52
2017-11-19T07:15:14.532Z,91.51
2017-11-19T07:17:42.369Z,91.80
2017-11-19T07:20:10.221Z,91.32
2017-11-19T07:22:37.946Z,91.54
2017-11-19T07:25:05.842Z,90.87
2017-11-19T07:27:33.707Z,91.00
2017-11-19T07:30:01.522Z,91.59
2017-11-19T07:32:29.415Z,91.25
2017-11-19T07:34:57.196Z,91.11
2017-11-19T07:37:24.922Z,91.33
2017-11-19T07:39:53.488Z,90.65
2017-11-19T07:42:21.402Z,89.90
2017-11-19T07:44:49.932Z,89.49
2017-11-19T07:47:17.700Z,89.85
2017-11-19T07:49:45.493Z,89.72
2017-11-19T07:52:14.135Z,89.81
2017-11-19T07:54:42.004Z,89.59
2017-11-19T07:57:09.964Z,90.09
2017-11-19T07:59:37.702Z,89.55
2017-11-19T08:02:05.463Z,89.22
2017-11-19T08:04:33.266Z,88.83
2017-11-19T08:07:01.002Z,88.75
2017-11-19T08:09:28.765Z,88.77
2017-11-19T08:11:56.535Z,88.51
2017-11-19T08:14:24.354Z,87.90
2017-11-19T08:16:52.344Z,87.54
2017-11-19T08:19:20.079Z,87.25
2017-11-19T08:21:47.886Z,88.10
2017-11-19T08:24:16.671Z,86.85
2017-11-19T08:26:44.395Z,85.78
2017-11-19T08:29:12.157Z,87.15
2017-11-19T08:31:39.936Z,86.14
2017-11-19T08:34:07.963Z,83.85
2017-11-19T08:36:35.964Z,81.85
2017-11-19T08:39:04.394Z,80.29
2017-11-19T08:41:32.561Z,78.39
2017-11-19T08:44:00.419Z,77.58
2017-11-19T08:46:28.220Z,76.61
2017-11-19T08:48:56.065Z,79.29
2017-11-19T08:51:23.888Z,78.00
2017-11-19T08:53:51.725Z,78.67
2017-11-19T08:56:20.006Z,78.32
2017-11-19T08:58:49.014Z,75.63
2017-11-19T09:01:17.480Z,74.94
2017-11-19T09:03:45.368Z,75.42
2017-11-19T09:06:13.395Z,76.41
2017-11-19T09:08:41.246Z,77.93
2017-11-19T09:11:08.965Z,77.70
2017-11-19T09:13:37.510Z,79.31
2017-11-19T09:16:05.351Z,78.45
2017-11-19T09:18:33.127Z,78.39
2017-11-19T09:21:00.912Z,78.08
2017-11-19T09:23:28.689Z,80.67
2017-11-19T09:25:56.417Z,80.80
2017-11-19T09:28:24.213Z,80.95
2017-11-19T09:30:51.983Z,80.14
2017-11-19T09:33:19.858Z,81.52
2017-11-19T09:35:47.632Z,82.42
2017-11-19T09:38:15.481Z,81.93
2017-11-19T09:40:43.737Z,80.88
2017-11-19T09:43:11.508Z,82.01
2017-11-19T09:45:39.298Z,82.20
2017-11-19T09:48:07.128Z,82.54
2017-11-19T09:50:34.970Z,82.39
2017-11-19T09:53:02.792Z,82.47
2017-11-19T09:55:30.565Z,83.13
2017-11-19T09:57:58.384Z,83.17
2017-11-19T10:00:26.225Z,83.45
2017-11-19T10:02:53.978Z,84.35
2017-11-19T10:05:21.880Z,85.01
2017-11-19T10:07:50.912Z,85.29
2017-11-19T10:10:18.817Z,85.16
2017-11-19T10:12:46.680Z,84.31
2017-11-19T10:15:14.382Z,85.51
2017-11-19T10:17:42.148Z,85.55
2017-11-19T10:20:09.939Z,85.60
2017-11-19T10:22:37.664Z,85.43
2017-11-19T10:25:05.487Z,84.35
2017-11-19T10:27:33.307Z,84.31
2017-11-19T10:30:01.077Z,84.29
2017-11-19T10:32:28.875Z,84.21
2017-11-19T10:34:56.640Z,83.82
2017-11-19T10:37:24.440Z,83.43
2017-11-19T10:39:52.372Z,83.89
2017-11-19T10:42:20.123Z,83.41
2017-11-19T10:44:48.556Z,81.95
2017-11-19T10:47:16.331Z,81.31
2017-11-19T10:49:44.145Z,78.47
2017-11-19T10:52:11.980Z,78.69
2017-11-19T10:54:39.777Z,77.12
2017-11-19T10:57:07.565Z,77.02
2017-11-19T10:59:35.457Z,75.95
2017-11-19T11:02:03.225Z,74.67
2017-11-19T11:04:30.984Z,76.39
2017-11-19T11:06:58.954Z,76.56
2017-11-19T11:09:26.738Z,78.15
2017-11-19T11:11:55.527Z,78.26
2017-11-19T11:14:23.385Z,79.75
2017-11-19T11:16:51.174Z,79.36
2017-11-19T11:19:18.975Z,78.31
2017-11-19T11:21:46.691Z,79.73
2017-11-19T11:24:14.445Z,80.48
2017-11-19T11:26:42.176Z,81.81
2017-11-19T11:29:09.975Z,82.43
2017-11-19T11:31:37.722Z,83.66
2017-11-19T11:34:05.539Z,82.70
2017-11-19T11:36:33.237Z,83.51
2017-11-19T11:39:01.003Z,83.22
2017-11-19T11:41:28.756Z,83.81
2017-11-19T11:43:56.504Z,82.88
2017-11-19T11:46:24.221Z,81.17
2017-11-19T11:48:52.010Z,82.47
2017-11-19T11:51:19.729Z,82.99
2017-11-19T11:53:47.514Z,83.71
2017-11-19T11:56:15.466Z,84.45
2017-11-19T11:58:43.198Z,84.70
2017-11-19T12:01:11.113Z,85.38
2017-11-19T12:03:38.820Z,86.14
2017-11-19T12:06:06.539Z,85.57
2017-11-19T12:08:34.377Z,85.39
2017-11-19T12:11:02.094Z,85.30
2017-11-19T12:13:29.825Z,86.17
2017-11-19T12:15:57.588Z,86.65
2017-11-19T12:18:25.942Z,85.65
2017-11-19T12:20:53.778Z,85.94
2017-11-19T12:23:21.613Z,86.06
2017-11-19T12:25:49.429Z,86.50
2017-11-19T12:28:17.386Z,86.10
2017-11-19T12:30:45.168Z,87.01
2017-11-19T12:33:13.000Z,87.79
2017-11-19T12:35:40.702Z,87.46
2017-11-19T12:38:08.720Z,87.57
2017-11-19T12:43:34.673Z,87.11
2017-11-19T12:46:02.451Z,86.64
2017-11-19T12:48:30.197Z,86.31
2017-11-19T12:50:57.965Z,85.87
2017-11-19T12:53:25.760Z,86.25
2017-11-19T12:55:53.544Z,86.76
2017-11-19T12:58:21.292Z,85.99
2017-11-19T13:00:49.129Z,86.41
2017-11-19T13:03:16.889Z,85.46
2017-11-19T13:05:44.652Z,86.65
2017-11-19T13:08:12.451Z,87.60
2017-11-19T13:10:40.166Z,88.43
2017-11-19T13:13:07.894Z,86.63
2017-11-19T13:15:35.749Z,84.31
2017-11-19T13:18:03.478Z,82.95
2017-11-19T13:20:31.290Z,83.02
2017-11-19T13:22:59.108Z,80.41
2017-11-19T13:25:26.873Z,82.39
2017-11-19T13:27:55.500Z,84.75
2017-11-19T13:30:23.242Z,84.95
2017-11-19T13:32:51.120Z,85.06
2017-11-19T13:35:18.823Z,78.65
2017-11-19T13:37:46.633Z,81.03
2017-11-19T13:40:14.422Z,83.54
2017-11-19T13:42:42.171Z,84.89
2017-11-19T13:45:09.945Z,84.04
2017-11-19T13:47:37.835Z,84.18
2017-11-19T13:50:05.566Z,85.12
2017-11-19T13:52:33.264Z,85.30
2017-11-19T13:55:01.021Z,84.72
2017-11-19T13:57:28.722Z,81.25
2017-11-19T13:59:56.406Z,75.62
2017-11-19T14:02:24.172Z,78.10
2017-11-19T14:04:51.900Z,75.14
2017-11-19T14:07:19.639Z,77.80
2017-11-19T14:09:47.388Z,80.36
2017-11-19T14:12:15.104Z,76.26
2017-11-19T14:14:42.822Z,76.65
2017-11-19T14:17:10.518Z,77.01
2017-11-19T14:19:38.284Z,76.32
2017-11-19T14:22:06.003Z,75.08
2017-11-19T14:24:33.810Z,75.78
2017-11-19T14:27:01.548Z,77.98
2017-11-19T14:29:29.342Z,80.23
2017-11-19T14:31:57.109Z,79.92
2017-11-19T14:34:24.807Z,80.97
2017-11-19T14:36:52.602Z,81.67
2017-11-19T14:39:20.322Z,82.46
2017-11-19T14:41:48.532Z,84.57
2017-11-19T14:44:17.225Z,80.46
2017-11-19T14:46:44.966Z,83.01
2017-11-19T14:49:12.682Z,83.55
2017-11-19T14:51:40.444Z,82.54
2017-11-19T14:54:08.151Z,83.55
2017-11-19T14:56:35.927Z,83.67
2017-11-19T14:59:03.681Z,83.60
2017-11-19T15:01:32.270Z,83.78
2017-11-19T15:04:00.030Z,83.99
2017-11-19T15:06:27.779Z,82.35
2017-11-19T15:08:55.472Z,82.11
2017-11-19T15:11:23.304Z,84.56
2017-11-19T15:13:51.143Z,79.29
2017-11-19T15:16:18.917Z,78.99
2017-11-19T15:18:46.643Z,79.88
2017-11-19T15:21:14.493Z,79.68
2017-11-19T15:23:42.260Z,81.46
2017-11-19T15:26:10.028Z,83.11
2017-11-19T15:28:37.742Z,84.61
2017-11-19T15:31:05.504Z,82.51
2017-11-19T15:33:33.275Z,84.48
2017-11-19T15:36:02.138Z,84.16
2017-11-19T15:38:30.092Z,84.57
2017-11-19T15:40:57.833Z,84.29
2017-11-19T15:43:26.358Z,84.50
2017-11-19T15:45:54.285Z,85.27
2017-11-19T15:48:22.045Z,84.54
2017-11-19T15:50:51.367Z,85.18
2017-11-19T15:53:19.134Z,84.13
2017-11-19T15:55:46.899Z,84.60
2017-11-19T15:58:14.691Z,84.14
2017-11-19T16:00:42.530Z,84.05
2017-11-19T16:03:10.327Z,83.07
2017-11-19T16:05:39.257Z,84.36
2017-11-19T16:08:07.054Z,84.65
2017-11-19T16:10:37.843Z,84.82
2017-11-19T16:13:05.760Z,85.84
2017-11-19T16:15:33.820Z,85.20
2017-11-19T16:18:02.728Z,86.23
2017-11-19T16:20:30.523Z,87.52
2017-11-19T16:22:58.377Z,86.26
2017-11-19T16:25:26.314Z,86.02
2017-11-19T16:27:54.245Z,86.12
2017-11-19T16:30:22.049Z,85.83
2017-11-19T16:32:49.822Z,86.62
2017-11-19T16:35:18.413Z,88.08
2017-11-19T16:37:46.478Z,87.85
2017-11-19T16:40:14.344Z,88.01
2017-11-19T16:42:42.115Z,88.00
2017-11-19T16:45:10.081Z,88.22
2017-11-19T16:47:37.849Z,88.22
2017-11-19T16:50:06.698Z,87.16
2017-11-19T16:52:34.498Z,87.54
2017-11-19T16:55:02.269Z,87.71
2017-11-19T16:57:31.085Z,89.13
2017-11-19T16:59:58.859Z,89.45
2017-11-19T17:02:26.666Z,89.04
2017-11-19T17:04:54.453Z,89.17
2017-11-19T17:07:22.219Z,89.39
2017-11-19T17:09:50.040Z,89.80
2017-11-19T17:12:18.890Z,89.62
2017-11-19T17:14:46.676Z,89.55
2017-11-19T17:17:14.569Z,85.23
2017-11-19T17:19:42.293Z,85.31
2017-11-19T17:22:10.052Z,87.98
2017-11-19T17:24:37.906Z,88.29
2017-11-19T17:27:06.459Z,88.88
2017-11-19T17:29:34.269Z,88.44
2017-11-19T17:32:02.050Z,88.47
2017-11-19T17:34:29.830Z,88.54
2017-11-19T17:36:58.127Z,88.90
2017-11-19T17:39:25.927Z,89.44
2017-11-19T17:41:53.774Z,89.61
2017-11-19T17:44:21.694Z,89.77
2017-11-19T17:46:49.536Z,86.14
2017-11-19T17:49:17.375Z,88.32
2017-11-19T17:51:45.353Z,89.07
2017-11-19T17:54:13.231Z,89.43
2017-11-19T17:56:42.119Z,90.50
2017-11-19T17:59:10.023Z,90.29
2017-11-19T18:01:38.336Z,90.32
2017-11-19T18:04:07.554Z,90.54
2017-11-19T18:06:35.393Z,90.33
2017-11-19T18:09:04.370Z,90.41
2017-11-19T18:11:32.440Z,89.55
2017-11-19T18:14:00.169Z,88.59
2017-11-19T18:16:28.478Z,90.48
2017-11-19T18:18:56.298Z,90.32
2017-11-19T18:21:24.528Z,90.54
2017-11-19T18:23:52.486Z,90.89
2017-11-19T18:26:20.301Z,91.42
2017-11-19T18:28:49.273Z,91.19
2017-11-19T18:31:17.115Z,89.63
2017-11-19T18:33:45.696Z,90.43
2017-11-19T18:36:14.260Z,90.79
2017-11-19T18:38:43.064Z,90.94
2017-11-19T18:41:10.869Z,90.53
2017-11-19T18:43:40.829Z,90.67
2017-11-19T18:46:08.563Z,90.90
2017-11-19T18:48:37.395Z,90.55
2017-11-19T18:51:05.531Z,90.99
2017-11-19T18:53:33.505Z,91.17
2017-11-19T18:56:03.430Z,90.38
2017-11-19T18:58:31.439Z,90.96
2017-11-19T19:00:59.360Z,91.06
2017-11-19T19:03:27.913Z,90.91
2017-11-19T19:05:56.315Z,90.82
2017-11-19T19:08:24.186Z,90.81
2017-11-19T19:10:52.124Z,90.84
2017-11-19T19:13:20.033Z,90.91
2017-11-19T19:15:47.784Z,91.06
2017-11-19T19:18:16.523Z,90.47
2017-11-19T19:20:44.737Z,87.28
2017-11-19T19:23:15.249Z,89.32
2017-11-19T19:25:43.651Z,86.12
2017-11-19T19:28:11.796Z,85.86
2017-11-19T19:30:39.597Z,87.40
2017-11-19T19:33:08.707Z,88.05
2017-11-19T19:35:36.489Z,88.52
2017-11-19T19:38:05.801Z,88.19
2017-11-19T19:40:34.339Z,89.08
2017-11-19T19:43:02.558Z,89.60
2017-11-19T19:45:31.220Z,89.40
2017-11-19T19:47:58.946Z,89.67
2017-11-19T19:50:26.967Z,90.22
2017-11-19T19:52:54.771Z,89.91
2017-11-19T19:55:22.525Z,90.72
2017-11-19T19:57:50.245Z,91.14
2017-11-19T20:00:18.086Z,91.02
2017-11-19T20:02:45.878Z,90.91
2017-11-19T20:05:13.659Z,91.61
2017-11-19T20:07:41.670Z,90.97
2017-11-19T20:10:09.378Z,90.77
2017-11-19T20:12:37.145Z,90.95
2017-11-19T20:15:04.913Z,91.56
2017-11-19T20:17:32.694Z,90.87
2017-11-19T20:20:00.503Z,90.88
2017-11-19T20:22:28.202Z,91.09
2017-11-19T20:24:55.956Z,91.92
2017-11-19T20:27:23.692Z,91.87
2017-11-19T20:29:51.595Z,90.79
2017-11-19T20:32:19.297Z,91.12
2017-11-19T20:34:46.986Z,89.60
2017-11-19T20:37:15.516Z,89.66
2017-11-19T20:39:43.248Z,89.96
2017-11-19T20:42:11.014Z,89.56
2017-11-19T20:44:39.996Z,89.83
2017-11-19T20:47:07.900Z,89.79
2017-11-19T20:49:35.610Z,90.07
2017-11-19T20:52:03.367Z,90.30
2017-11-19T20:54:31.188Z,89.61
2017-11-19T20:56:59.672Z,89.58
2017-11-19T20:59:27.477Z,89.66
2017-11-19T21:01:56.442Z,89.90
2017-11-19T21:04:24.188Z,89.67
2017-11-19T21:06:52.752Z,89.72
2017-11-19T21:09:20.696Z,89.92
2017-11-19T21:11:48.413Z,90.62
2017-11-19T21:14:16.178Z,90.40
2017-11-19T21:16:43.936Z,90.90
2017-11-19T21:19:11.721Z,91.20
2017-11-19T21:21:39.448Z,91.21
2017-11-19T21:24:07.276Z,91.16
2017-11-19T21:26:35.004Z,90.43
2017-11-19T21:29:03.313Z,90.62
2017-11-19T21:31:31.055Z,91.06
2017-11-19T21:33:58.996Z,91.53
2017-11-19T21:36:26.773Z,91.25
2017-11-19T21:38:54.529Z,90.47
2017-11-19T21:41:22.308Z,90.61
2017-11-19T21:43:50.016Z,91.27
2017-11-19T21:46:17.761Z,91.20
2017-11-19T21:48:45.499Z,90.65
2017-11-19T21:51:13.260Z,90.84
2017-11-19T21:53:40.984Z,90.85
2017-11-19T21:56:08.710Z,91.26
2017-11-19T21:58:36.488Z,91.31
2017-11-19T22:01:04.226Z,91.48
2017-11-19T22:03:31.953Z,91.04
2017-11-19T22:05:59.694Z,91.14
2017-11-19T22:08:27.408Z,90.49
2017-11-19T22:10:55.194Z,90.71
2017-11-19T22:13:22.890Z,91.15
2017-11-19T22:15:51.117Z,91.06
2017-11-19T22:18:18.870Z,91.05
2017-11-19T22:20:46.597Z,91.45
2017-11-19T22:23:14.348Z,91.24
2017-11-19T22:25:42.119Z,90.55
2017-11-19T22:28:09.818Z,90.43
2017-11-19T22:30:37.513Z,90.25
2017-11-19T22:33:05.290Z,90.82
2017-11-19T22:35:32.948Z,90.42
2017-11-19T22:38:00.642Z,90.54
2017-11-19T22:40:28.378Z,90.49
2017-11-19T22:42:56.118Z,90.52
2017-11-19T22:45:23.813Z,90.56
2017-11-19T22:47:51.588Z,91.02
2017-11-19T22:50:19.375Z,91.32
2017-11-19T22:52:47.089Z,90.44
2017-11-19T22:55:14.821Z,91.24
2017-11-19T22:57:42.661Z,91.14
2017-11-19T23:00:10.388Z,91.27
2017-11-19T23:02:38.153Z,91.58
2017-11-19T23:05:05.908Z,91.31
2017-11-19T23:07:33.619Z,91.17
2017-11-19T23:10:01.323Z,91.18
2017-11-19T23:12:29.494Z,91.65
2017-11-19T23:14:57.189Z,91.56
2017-11-19T23:17:24.988Z,91.23
2017-11-19T23:19:52.688Z,91.33
2017-11-19T23:22:20.418Z,90.96
2017-11-19T23:24:48.719Z,90.71
2017-11-19T23:27:16.474Z,90.64
2017-11-19T23:29:44.178Z,90.89
2017-11-19T23:32:11.907Z,90.98
2017-11-19T23:34:39.742Z,90.88
2017-11-19T23:37:07.535Z,89.99
2017-11-19T23:39:35.371Z,90.73
2017-11-19T23:42:03.161Z,91.41
2017-11-19T23:44:30.932Z,91.48
2017-11-19T23:46:58.714Z,90.48
2017-11-19T23:49:26.377Z,90.34
2017-11-19T23:51:54.090Z,90.20
2017-11-19T23:54:21.947Z,90.47
2017-11-19T23:56:49.595Z,90.82
2017-11-19T23:59:17.281Z,90.87
